createdAt,value
2023-11-28T00:00:36.386Z,22.35
2023-11-28T00:03:03.141Z,22.30
2023-11-28T00:05:29.968Z,21.40
2023-11-28T00:07:56.537Z,25.20
2023-11-28T00:10:23.134Z,24.05
2023-11-28T00:12:50.900Z,24.10
2023-11-28T00:15:17.935Z,25.00
2023-11-28T00:17:46.187Z,22.63
2023-11-28T00:20:12.834Z,22.80
2023-11-28T00:22:39.467Z,23.10
2023-11-28T00:25:07.834Z,22.42
2023-11-28T00:27:35.559Z,23.92
2023-11-28T00:30:02.313Z,22.48
2023-11-28T00:32:29.142Z,21.45
2023-11-28T00:34:57.621Z,21.08
2023-11-28T00:37:24.330Z,21.35
2023-11-28T00:39:51.625Z,20.65
2023-11-28T00:42:18.763Z,20.55
2023-11-28T00:44:45.477Z,23.15
2023-11-28T00:47:12.236Z,20.77
2023-11-28T00:49:41.046Z,18.52
2023-11-28T00:52:09.829Z,20.13
2023-11-28T00:54:36.505Z,20.33
2023-11-28T00:57:03.468Z,19.52
2023-11-28T00:59:30.248Z,21.45
2023-11-28T01:01:57.375Z,19.55
2023-11-28T01:04:24.206Z,18.00
2023-11-28T01:06:51.262Z,19.13
2023-11-28T01:09:19.354Z,15.90
2023-11-28T01:11:45.921Z,16.42
2023-11-28T01:14:12.546Z,17.05
2023-11-28T01:16:39.349Z,19.20
2023-11-28T01:19:06.355Z,17.30
2023-11-28T01:21:32.931Z,15.48
2023-11-28T01:23:59.621Z,17.38
2023-11-28T01:26:27.645Z,17.42
2023-11-28T01:28:54.343Z,17.90
2023-11-28T01:31:22.235Z,16.40
2023-11-28T01:33:49.006Z,15.23
2023-11-28T01:36:15.751Z,18.00
2023-11-28T01:38:42.817Z,18.00
2023-11-28T01:41:09.564Z,19.20
2023-11-28T01:43:37.745Z,18.90
2023-11-28T01:46:04.897Z,18.20
2023-11-28T01:48:32.095Z,17.08
2023-11-28T01:50:58.651Z,16.90
2023-11-28T01:53:25.395Z,14.82
2023-11-28T01:55:52.448Z,20.58
2023-11-28T01:58:19.238Z,18.65
2023-11-28T02:00:47.598Z,20.30
2023-11-28T02:03:16.740Z,18.63
2023-11-28T02:05:43.691Z,21.08
2023-11-28T02:08:10.249Z,18.33
2023-11-28T02:10:37.524Z,21.80
2023-11-28T02:13:06.087Z,23.17
2023-11-28T02:15:40.530Z,22.10
2023-11-28T02:18:08.904Z,21.65
2023-11-28T02:20:35.755Z,24.08
2023-11-28T02:23:08.986Z,24.92
2023-11-28T02:25:40.015Z,22.30
2023-11-28T02:28:07.889Z,21.25
2023-11-28T02:30:34.341Z,21.05
2023-11-28T02:33:01.063Z,21.80
2023-11-28T02:35:27.741Z,21.55
2023-11-28T02:37:54.424Z,19.35
2023-11-28T02:40:21.008Z,24.33
2023-11-28T02:42:49.934Z,23.70
2023-11-28T02:45:23.940Z,23.73
2023-11-28T02:47:50.541Z,26.45
2023-11-28T02:50:17.158Z,28.58
2023-11-28T02:52:43.736Z,26.23
2023-11-28T02:55:12.333Z,24.55
2023-11-28T02:57:40.336Z,23.65
2023-11-28T03:00:07.496Z,28.10
2023-11-28T03:02:36.083Z,22.92
2023-11-28T03:05:02.770Z,27.83
2023-11-28T03:07:29.390Z,28.33
2023-11-28T03:09:56.044Z,28.70
2023-11-28T03:12:22.603Z,29.20
2023-11-28T03:14:49.083Z,33.20
2023-11-28T03:17:16.818Z,25.52
2023-11-28T03:19:44.913Z,27.75
2023-11-28T03:22:11.459Z,30.67
2023-11-28T03:24:38.150Z,34.13
2023-11-28T03:27:04.708Z,31.33
2023-11-28T03:29:31.438Z,30.80
2023-11-28T03:31:58.063Z,28.10
2023-11-28T03:34:24.677Z,33.17
2023-11-28T03:36:52.604Z,31.50
2023-11-28T03:39:20.271Z,29.48
2023-11-28T03:41:47.817Z,31.98
2023-11-28T03:44:14.480Z,33.08
2023-11-28T03:46:41.303Z,34.63
2023-11-28T03:49:07.937Z,30.80
2023-11-28T03:51:35.133Z,32.88
2023-11-28T03:54:03.433Z,33.63
2023-11-28T03:56:30.098Z,30.95
2023-11-28T03:58:56.762Z,33.05
2023-11-28T04:01:23.372Z,33.15
2023-11-28T04:03:49.967Z,33.92
2023-11-28T04:06:17.853Z,34.47
2023-11-28T04:08:44.332Z,33.45
2023-11-28T04:11:12.844Z,35.78
2023-11-28T04:13:39.313Z,40.00
2023-11-28T04:16:07.210Z,38.97
2023-11-28T04:18:34.089Z,36.78
2023-11-28T04:21:00.654Z,37.85
2023-11-28T04:23:27.296Z,39.70
2023-11-28T04:25:53.904Z,34.35
2023-11-28T04:28:22.323Z,37.42
2023-11-28T04:30:49.197Z,36.65
2023-11-28T04:33:16.236Z,33.75
2023-11-28T04:35:43.797Z,36.65
2023-11-28T04:38:10.498Z,31.35
2023-11-28T04:40:37.469Z,30.35
2023-11-28T04:43:04.932Z,31.63
2023-11-28T04:45:34.071Z,32.15
2023-11-28T04:48:00.602Z,30.42
2023-11-28T04:50:27.582Z,34.13
2023-11-28T04:52:54.187Z,29.05
2023-11-28T04:55:20.680Z,32.35
2023-11-28T04:57:47.253Z,32.72
2023-11-28T05:00:14.428Z,33.55
2023-11-28T05:02:42.568Z,32.28
2023-11-28T05:05:09.378Z,31.00
2023-11-28T05:07:45.504Z,32.08
2023-11-28T05:10:12.231Z,32.83
2023-11-28T05:12:39.246Z,32.47
2023-11-28T05:15:06.198Z,32.63
2023-11-28T05:17:33.059Z,30.45
2023-11-28T05:20:01.308Z,29.25
2023-11-28T05:22:28.379Z,30.38
2023-11-28T05:24:54.970Z,30.77
2023-11-28T05:27:21.485Z,29.10
2023-11-28T05:29:48.241Z,28.35
2023-11-28T05:32:14.838Z,26.83
2023-11-28T05:34:41.449Z,29.20
2023-11-28T05:37:09.562Z,26.05
2023-11-28T05:39:38.192Z,25.73
2023-11-28T05:42:05.132Z,23.90
2023-11-28T05:44:31.770Z,24.15
2023-11-28T05:46:59.049Z,24.80
2023-11-28T05:49:26.149Z,25.27
2023-11-28T05:51:52.827Z,25.08
2023-11-28T05:54:20.927Z,23.27
2023-11-28T05:56:47.896Z,20.70
2023-11-28T05:59:14.772Z,20.92
2023-11-28T06:01:57.362Z,19.63
2023-11-28T06:04:24.019Z,15.77
2023-11-28T06:06:50.724Z,17.98
2023-11-28T06:09:21.896Z,15.07
2023-11-28T06:11:48.472Z,13.70
2023-11-28T06:14:15.475Z,11.25
2023-11-28T06:16:42.294Z,10.82
2023-11-28T06:19:09.242Z,10.05
2023-11-28T06:21:35.946Z,8.40
2023-11-28T06:24:02.469Z,10.93
2023-11-28T06:26:30.431Z,6.63
2023-11-28T06:28:57.025Z,6.57
2023-11-28T06:31:23.756Z,6.97
2023-11-28T06:33:50.399Z,9.43
2023-11-28T06:36:18.836Z,6.65
2023-11-28T06:38:45.548Z,6.97
2023-11-28T06:41:12.284Z,9.30
2023-11-28T06:43:40.243Z,6.03
2023-11-28T06:46:07.077Z,5.78
2023-11-28T06:48:33.744Z,6.65
2023-11-28T06:51:00.489Z,7.47
2023-11-28T06:53:27.174Z,6.25
2023-11-28T06:55:53.900Z,6.30
2023-11-28T06:58:20.564Z,5.72
2023-11-28T07:00:50.694Z,5.80
2023-11-28T07:03:18.349Z,7.70
2023-11-28T07:05:45.057Z,5.40
2023-11-28T07:08:11.793Z,5.70
2023-11-28T07:10:38.494Z,5.82
2023-11-28T07:13:05.413Z,4.97
2023-11-28T07:15:32.764Z,6.78
2023-11-28T07:18:00.688Z,6.22
2023-11-28T07:20:27.217Z,5.40
2023-11-28T07:22:53.756Z,6.03
2023-11-28T07:25:20.386Z,8.00
2023-11-28T07:27:48.058Z,6.65
2023-11-28T07:30:14.834Z,6.72
2023-11-28T07:32:41.463Z,5.90
2023-11-28T07:35:09.574Z,9.43
2023-11-28T07:37:36.125Z,9.57
2023-11-28T07:40:02.703Z,12.25
2023-11-28T07:42:29.136Z,7.53
2023-11-28T07:44:55.835Z,7.72
2023-11-28T07:47:22.438Z,6.97
2023-11-28T07:49:49.005Z,7.13
2023-11-28T07:52:16.867Z,8.15
2023-11-28T07:54:43.395Z,7.85
2023-11-28T07:57:09.959Z,8.48
2023-11-28T07:59:36.369Z,10.35
2023-11-28T08:02:02.926Z,6.53
2023-11-28T08:04:29.601Z,7.38
2023-11-28T08:06:56.308Z,14.65
2023-11-28T08:09:24.370Z,6.93
2023-11-28T08:11:50.972Z,7.22
2023-11-28T08:14:21.342Z,8.05
2023-11-28T08:16:49.035Z,5.97
2023-11-28T08:19:15.602Z,8.80
2023-11-28T08:21:43.337Z,8.65
2023-11-28T08:24:09.777Z,9.07
2023-11-28T08:26:37.745Z,8.55
2023-11-28T08:29:04.248Z,6.97
2023-11-28T08:31:30.865Z,8.70
2023-11-28T08:33:57.352Z,9.95
2023-11-28T08:36:23.880Z,8.82
2023-11-28T08:38:50.501Z,7.22
2023-11-28T08:41:17.070Z,8.43
2023-11-28T08:43:45.038Z,8.65
2023-11-28T08:46:11.870Z,7.25
2023-11-28T08:48:38.519Z,9.95
2023-11-28T08:51:05.251Z,10.38
2023-11-28T08:53:31.753Z,9.55
2023-11-28T08:55:58.333Z,9.65
2023-11-28T08:58:24.980Z,6.78
2023-11-28T09:00:52.902Z,8.73
2023-11-28T09:03:19.518Z,10.48
2023-11-28T09:05:46.082Z,9.85
2023-11-28T09:08:12.820Z,8.48
2023-11-28T09:10:39.497Z,9.27
2023-11-28T09:13:06.104Z,7.70
2023-11-28T09:15:32.728Z,9.00
2023-11-28T09:18:00.749Z,8.57
2023-11-28T09:20:27.594Z,9.73
2023-11-28T09:22:54.158Z,9.10
2023-11-28T09:25:20.657Z,8.80
2023-11-28T09:27:47.063Z,8.07
2023-11-28T09:30:13.788Z,8.02
2023-11-28T09:32:40.374Z,8.18
2023-11-28T09:35:09.321Z,8.90
2023-11-28T09:37:35.814Z,8.82
2023-11-28T09:40:02.401Z,9.05
2023-11-28T09:42:31.367Z,8.43
2023-11-28T09:45:03.215Z,6.65
2023-11-28T09:47:31.387Z,8.98
2023-11-28T09:49:58.650Z,8.10
2023-11-28T09:52:28.296Z,6.43
2023-11-28T09:54:54.929Z,6.50
2023-11-28T09:57:22.111Z,10.70
2023-11-28T09:59:51.575Z,7.13
2023-11-28T10:02:18.754Z,8.30
2023-11-28T10:04:45.614Z,9.27
2023-11-28T10:07:12.736Z,6.45
2023-11-28T10:09:42.530Z,6.03
2023-11-28T10:12:09.094Z,7.00
2023-11-28T10:14:38.597Z,6.20
2023-11-28T10:17:05.416Z,5.35
2023-11-28T10:19:33.608Z,6.05
2023-11-28T10:22:03.476Z,6.60
2023-11-28T10:24:31.307Z,5.63
2023-11-28T10:26:59.900Z,5.70
2023-11-28T10:29:28.168Z,5.03
2023-11-28T10:31:54.844Z,5.70
2023-11-28T10:34:21.364Z,5.03
2023-11-28T10:36:48.639Z,4.20
2023-11-28T10:39:16.121Z,6.03
2023-11-28T10:41:42.582Z,6.18
2023-11-28T10:44:10.694Z,4.53
2023-11-28T10:46:38.501Z,6.97
2023-11-28T10:49:05.347Z,4.43
2023-11-28T10:51:32.263Z,4.80
2023-11-28T10:54:01.274Z,4.85
2023-11-28T10:56:28.419Z,5.47
2023-11-28T10:58:55.748Z,5.25
2023-11-28T11:01:24.185Z,4.90
2023-11-28T11:03:51.025Z,4.35
2023-11-28T11:06:17.658Z,5.72
2023-11-28T11:08:44.344Z,5.05
2023-11-28T11:11:11.034Z,3.80
2023-11-28T11:13:42.636Z,4.32
2023-11-28T11:16:12.550Z,3.35
2023-11-28T11:18:43.049Z,3.35
2023-11-28T11:21:14.535Z,4.43
2023-11-28T11:23:42.324Z,3.33
2023-11-28T11:26:08.793Z,4.93
2023-11-28T11:28:35.257Z,3.28
2023-11-28T11:31:08.960Z,4.65
2023-11-28T11:33:35.456Z,2.90
2023-11-28T11:36:07.335Z,3.20
2023-11-28T11:38:35.723Z,5.73
2023-11-28T11:41:03.130Z,2.95
2023-11-28T11:43:29.904Z,3.33
2023-11-28T11:46:06.200Z,4.47
2023-11-28T11:48:34.410Z,3.05
2023-11-28T11:51:01.058Z,4.05
2023-11-28T11:53:29.128Z,4.45
2023-11-28T11:55:55.827Z,3.35
2023-11-28T11:58:22.987Z,3.83
2023-11-28T12:00:49.487Z,4.35
2023-11-28T12:03:17.905Z,4.60
2023-11-28T12:05:49.710Z,3.20
2023-11-28T12:08:16.291Z,4.10
2023-11-28T12:10:44.262Z,4.95
2023-11-28T12:13:11.823Z,3.67
2023-11-28T12:15:38.350Z,3.17
2023-11-28T12:18:11.493Z,3.45
2023-11-28T12:20:41.990Z,3.83
2023-11-28T12:23:09.427Z,3.60
2023-11-28T12:25:36.569Z,4.38
2023-11-28T12:28:04.586Z,3.47
2023-11-28T12:30:31.126Z,3.15
2023-11-28T12:33:01.583Z,5.28
2023-11-28T12:35:28.613Z,3.72
2023-11-28T12:37:55.303Z,3.35
2023-11-28T12:40:22.008Z,3.47
2023-11-28T12:42:50.203Z,3.20
2023-11-28T12:45:23.791Z,5.30
2023-11-28T12:47:50.403Z,3.50
2023-11-28T12:50:16.967Z,3.47
2023-11-28T12:52:43.707Z,3.72
2023-11-28T12:55:10.320Z,3.60
2023-11-28T12:57:37.007Z,2.85
2023-11-28T13:00:03.761Z,5.65
2023-11-28T13:02:31.927Z,3.90
2023-11-28T13:04:58.533Z,6.32
2023-11-28T13:07:33.142Z,3.95
2023-11-28T13:10:05.633Z,3.22
2023-11-28T13:12:32.287Z,3.40
2023-11-28T13:14:58.917Z,2.92
2023-11-28T13:17:25.698Z,2.75
2023-11-28T13:19:53.748Z,2.85
2023-11-28T13:22:22.928Z,2.70
2023-11-28T13:24:49.602Z,4.15
2023-11-28T13:27:16.135Z,2.90
2023-11-28T13:29:43.936Z,2.70
2023-11-28T13:32:10.718Z,4.43
2023-11-28T13:34:37.284Z,5.47
2023-11-28T13:37:05.292Z,4.60
2023-11-28T13:39:31.850Z,2.97
2023-11-28T13:41:58.388Z,4.38
2023-11-28T13:44:25.134Z,5.13
2023-11-28T13:46:51.699Z,4.93
2023-11-28T13:49:18.351Z,6.88
2023-11-28T13:51:45.245Z,5.07
2023-11-28T13:54:13.314Z,3.00
2023-11-28T13:56:39.940Z,4.38
2023-11-28T13:59:06.686Z,3.00
2023-11-28T14:01:33.212Z,2.83
2023-11-28T14:03:59.861Z,2.67
2023-11-28T14:06:26.763Z,3.58
2023-11-28T14:08:53.419Z,3.17
2023-11-28T14:11:21.329Z,3.00
2023-11-28T14:13:47.963Z,3.78
2023-11-28T14:16:14.655Z,3.95
2023-11-28T14:18:41.366Z,3.15
2023-11-28T14:21:09.163Z,3.00
2023-11-28T14:23:36.004Z,2.78
2023-11-28T14:26:02.663Z,2.53
2023-11-28T14:28:30.566Z,2.88
2023-11-28T14:30:57.424Z,6.13
2023-11-28T14:33:24.218Z,3.72
2023-11-28T14:35:50.869Z,3.70
2023-11-28T14:38:17.530Z,3.63
2023-11-28T14:40:44.102Z,3.33
2023-11-28T14:43:10.636Z,4.18
2023-11-28T14:45:38.552Z,2.83
2023-11-28T14:48:05.407Z,2.85
2023-11-28T14:50:32.234Z,2.90
2023-11-28T14:52:58.943Z,5.78
2023-11-28T14:55:25.504Z,5.43
2023-11-28T14:57:51.975Z,3.20
2023-11-28T15:00:18.749Z,3.72
2023-11-28T15:02:46.779Z,3.05
2023-11-28T15:05:14.359Z,4.00
2023-11-28T15:07:41.561Z,5.40
2023-11-28T15:10:08.133Z,2.85
2023-11-28T15:12:34.859Z,5.05
2023-11-28T15:15:01.347Z,4.40
2023-11-28T15:17:28.035Z,5.88
2023-11-28T15:19:57.110Z,4.38
2023-11-28T15:22:23.779Z,4.07
2023-11-28T15:24:50.280Z,3.75
2023-11-28T15:27:16.818Z,4.38
2023-11-28T15:29:43.280Z,3.90
2023-11-28T15:32:11.362Z,5.30
2023-11-28T15:34:37.877Z,4.40
2023-11-28T15:37:05.885Z,5.47
2023-11-28T15:39:32.567Z,4.13
2023-11-28T15:41:59.085Z,4.93
2023-11-28T15:44:25.805Z,6.30
2023-11-28T15:46:52.611Z,5.10
2023-11-28T15:49:29.335Z,4.20
2023-11-28T15:52:04.529Z,4.53
2023-11-28T15:54:32.980Z,6.25
2023-11-28T15:56:59.577Z,3.75
2023-11-28T15:59:26.319Z,3.70
2023-11-28T16:01:53.061Z,4.45
2023-11-28T16:04:20.853Z,4.40
2023-11-28T16:06:47.427Z,4.30
2023-11-28T16:09:14.087Z,4.53
2023-11-28T16:11:42.066Z,5.07
2023-11-28T16:14:08.700Z,4.75
2023-11-28T16:16:35.472Z,5.68
2023-11-28T16:19:02.237Z,4.00
2023-11-28T16:21:29.323Z,5.60
2023-11-28T16:23:56.062Z,6.78
2023-11-28T16:26:22.832Z,6.20
2023-11-28T16:28:51.018Z,5.70
2023-11-28T16:31:18.336Z,5.43
2023-11-28T16:36:11.491Z,6.43
2023-11-28T16:38:38.130Z,5.30
2023-11-28T16:41:04.874Z,5.13
2023-11-28T16:43:31.391Z,5.90
2023-11-28T16:45:59.490Z,5.53
2023-11-28T16:48:25.965Z,5.60
2023-11-28T16:50:52.526Z,5.80
2023-11-28T16:53:19.171Z,7.72
2023-11-28T16:55:45.737Z,6.07
2023-11-28T16:58:12.368Z,8.07
2023-11-28T17:00:39.137Z,6.50
2023-11-28T17:03:07.138Z,6.78
2023-11-28T17:05:33.802Z,11.30
2023-11-28T17:08:00.391Z,8.13
2023-11-28T17:10:26.901Z,7.57
2023-11-28T17:12:53.477Z,7.80
2023-11-28T17:15:20.250Z,6.68
2023-11-28T17:17:46.804Z,9.07
2023-11-28T17:20:15.199Z,7.70
2023-11-28T17:22:41.650Z,6.32
2023-11-28T17:25:08.263Z,7.13
2023-11-28T17:27:34.939Z,9.77
2023-11-28T17:30:01.544Z,7.22
2023-11-28T17:32:28.180Z,7.70
2023-11-28T17:34:55.961Z,6.95
2023-11-28T17:37:24.211Z,8.18
2023-11-28T17:39:51.429Z,8.00
2023-11-28T17:42:18.306Z,8.20
2023-11-28T17:44:44.873Z,8.07
2023-11-28T17:47:11.549Z,10.90
2023-11-28T17:49:38.278Z,12.15
2023-11-28T17:52:04.818Z,9.07
2023-11-28T17:54:32.608Z,9.38
2023-11-28T17:56:59.281Z,9.52
2023-11-28T17:59:25.893Z,8.55
2023-11-28T18:01:52.525Z,9.82
2023-11-28T18:04:19.323Z,9.23
2023-11-28T18:06:49.657Z,8.38
2023-11-28T18:09:16.341Z,8.52
2023-11-28T18:11:44.235Z,8.80
2023-11-28T18:14:10.771Z,12.30
2023-11-28T18:16:38.510Z,15.13
2023-11-28T18:19:05.110Z,13.20
2023-11-28T18:21:31.736Z,12.23
2023-11-28T18:23:58.395Z,11.05
2023-11-28T18:26:26.426Z,10.88
2023-11-28T18:28:54.916Z,9.65
2023-11-28T18:31:21.642Z,13.27
2023-11-28T18:33:48.548Z,11.75
2023-11-28T18:36:15.534Z,15.60
2023-11-28T18:38:50.381Z,11.02
2023-11-28T18:41:21.963Z,13.68
2023-11-28T18:43:48.626Z,14.38
2023-11-28T18:46:17.296Z,10.32
2023-11-28T18:48:44.070Z,13.82
2023-11-28T18:51:15.146Z,13.95
2023-11-28T18:53:42.097Z,15.77
2023-11-28T18:56:16.594Z,20.25
2023-11-28T18:58:43.587Z,16.92
2023-11-28T19:01:14.532Z,15.70
2023-11-28T19:03:42.766Z,15.77
2023-11-28T19:06:10.786Z,11.85
2023-11-28T19:08:37.502Z,12.38
2023-11-28T19:11:04.141Z,10.75
2023-11-28T19:13:31.230Z,11.45
2023-11-28T19:15:58.187Z,12.63
2023-11-28T19:18:25.096Z,12.90
2023-11-28T19:20:53.166Z,10.40
2023-11-28T19:23:20.013Z,12.68
2023-11-28T19:25:47.234Z,12.35
2023-11-28T19:28:14.090Z,10.80
2023-11-28T19:30:40.629Z,12.88
2023-11-28T19:33:09.460Z,13.05
2023-11-28T19:35:37.510Z,10.73
2023-11-28T19:38:05.743Z,13.57
2023-11-28T19:40:32.510Z,16.63
2023-11-28T19:42:59.214Z,13.10
2023-11-28T19:45:25.834Z,12.07
2023-11-28T19:47:52.748Z,16.02
2023-11-28T19:50:19.529Z,12.18
2023-11-28T19:52:47.559Z,14.05
2023-11-28T19:55:16.014Z,14.25
2023-11-28T19:57:42.753Z,12.52
2023-11-28T20:00:10.132Z,11.77
2023-11-28T20:02:38.199Z,10.60
2023-11-28T20:05:05.483Z,9.40
2023-11-28T20:07:32.488Z,11.48
2023-11-28T20:09:59.250Z,12.70
2023-11-28T20:12:27.727Z,12.75
2023-11-28T20:14:54.652Z,12.93
2023-11-28T20:17:21.483Z,12.82
2023-11-28T20:19:48.327Z,13.52
2023-11-28T20:22:15.343Z,11.35
2023-11-28T20:24:43.275Z,12.15
2023-11-28T20:27:09.992Z,11.30
2023-11-28T20:29:38.061Z,16.30
2023-11-28T20:32:05.230Z,9.65
2023-11-28T20:34:31.893Z,15.75
2023-11-28T20:37:12.816Z,16.00
2023-11-28T20:39:45.297Z,12.77
2023-11-28T20:42:12.049Z,15.02
2023-11-28T20:44:40.605Z,13.35
2023-11-28T20:47:07.386Z,15.43
2023-11-28T20:49:33.993Z,13.10
2023-11-28T20:52:00.780Z,13.70
2023-11-28T20:54:27.544Z,14.70
2023-11-28T20:56:54.328Z,14.40
2023-11-28T20:59:21.230Z,11.77
2023-11-28T21:01:49.270Z,12.65
2023-11-28T21:04:16.253Z,12.52
2023-11-28T21:06:43.103Z,12.38
2023-11-28T21:09:10.843Z,13.63
2023-11-28T21:11:37.720Z,12.32
2023-11-28T21:14:04.669Z,13.85
2023-11-28T21:16:31.250Z,14.07
2023-11-28T21:18:59.372Z,14.68
2023-11-28T21:21:26.648Z,12.25
2023-11-28T21:23:54.206Z,12.23
2023-11-28T21:26:21.231Z,13.82
2023-11-28T21:28:51.339Z,12.90
2023-11-28T21:31:18.199Z,14.02
2023-11-28T21:33:45.561Z,14.43
2023-11-28T21:36:14.551Z,11.32
2023-11-28T21:38:44.999Z,16.80
2023-11-28T21:41:16.255Z,11.00
2023-11-28T21:43:45.821Z,15.57
2023-11-28T21:46:15.706Z,12.70
2023-11-28T21:48:43.570Z,11.30
2023-11-28T21:51:10.360Z,13.18
2023-11-28T21:53:38.604Z,14.98
2023-11-28T21:56:05.947Z,15.23
2023-11-28T21:58:33.239Z,15.68
2023-11-28T22:00:59.883Z,15.32
2023-11-28T22:03:26.838Z,16.20
2023-11-28T22:05:53.712Z,13.63
2023-11-28T22:08:20.476Z,16.83
2023-11-28T22:10:48.442Z,16.48
2023-11-28T22:13:15.195Z,14.77
2023-11-28T22:15:44.065Z,17.20
2023-11-28T22:18:12.975Z,15.15
2023-11-28T22:20:45.506Z,17.50
2023-11-28T22:23:13.872Z,14.20
2023-11-28T22:25:40.688Z,15.63
2023-11-28T22:28:08.878Z,15.07
2023-11-28T22:30:41.669Z,14.48
2023-11-28T22:33:08.313Z,14.55
2023-11-28T22:35:34.949Z,16.38
2023-11-28T22:38:01.911Z,14.10
2023-11-28T22:40:28.599Z,15.30
2023-11-28T22:42:55.210Z,19.35
2023-11-28T22:45:23.227Z,14.07
2023-11-28T22:47:50.046Z,15.38
2023-11-28T22:50:16.981Z,17.80
2023-11-28T22:52:43.925Z,16.92
2023-11-28T22:55:10.558Z,15.23
2023-11-28T22:57:37.213Z,14.88
2023-11-28T23:00:05.741Z,17.30
2023-11-28T23:02:34.123Z,15.45
2023-11-28T23:05:00.821Z,14.15
2023-11-28T23:07:28.479Z,14.93
2023-11-28T23:09:55.092Z,17.52
2023-11-28T23:12:21.741Z,14.15
2023-11-28T23:14:48.431Z,15.30
2023-11-28T23:17:15.133Z,16.42
2023-11-28T23:19:43.253Z,16.25
2023-11-28T23:22:09.876Z,15.75
2023-11-28T23:24:37.828Z,18.17
2023-11-28T23:27:05.073Z,17.70
2023-11-28T23:29:31.676Z,16.90
2023-11-28T23:31:58.473Z,17.95
2023-11-28T23:34:27.128Z,17.95
2023-11-28T23:36:55.112Z,17.80
2023-11-28T23:39:21.803Z,18.50
2023-11-28T23:41:48.688Z,18.15
2023-11-28T23:44:15.343Z,19.42
2023-11-28T23:46:43.500Z,20.40
2023-11-28T23:49:11.440Z,18.33
2023-11-28T23:51:38.029Z,19.33
2023-11-28T23:54:06.090Z,17.20
2023-11-28T23:56:33.783Z,20.38
2023-11-28T23:59:00.501Z,19.17
